sensor_id;sensor_type;location;lat;lon;timestamp;P1;durP1;ratioP1;P2;durP2;ratioP2
10725;SDS011;5414;59.782;16.378;2023-04-03T00:00:51;2.07;;;1.00;;
10725;SDS011;5414;59.782;16.378;2023-04-03T00:03:17;2.70;;;1.20;;
10725;SDS011;5414;59.782;16.378;2023-04-03T00:05:44;3.20;;;1.30;;
10725;SDS011;5414;59.782;16.378;2023-04-03T00:08:11;3.87;;;1.10;;
10725;SDS011;5414;59.782;16.378;2023-04-03T00:10:37;3.77;;;1.40;;
10725;SDS011;5414;59.782;16.378;2023-04-03T00:13:03;1.97;;;1.07;;
10725;SDS011;5414;59.782;16.378;2023-04-03T00:15:30;4.20;;;1.20;;
10725;SDS011;5414;59.782;16.378;2023-04-03T00:17:56;2.03;;;1.07;;
10725;SDS011;5414;59.782;16.378;2023-04-03T00:20:22;4.27;;;1.17;;
10725;SDS011;5414;59.782;16.378;2023-04-03T00:22:48;4.20;;;1.50;;
10725;SDS011;5414;59.782;16.378;2023-04-03T00:25:14;2.93;;;1.20;;
10725;SDS011;5414;59.782;16.378;2023-04-03T00:27:40;2.20;;;1.00;;
10725;SDS011;5414;59.782;16.378;2023-04-03T00:30:07;3.33;;;1.00;;
10725;SDS011;5414;59.782;16.378;2023-04-03T00:32:34;2.37;;;1.23;;
10725;SDS011;5414;59.782;16.378;2023-04-03T00:35:00;2.57;;;1.40;;
10725;SDS011;5414;59.782;16.378;2023-04-03T00:37:26;2.40;;;1.07;;
10725;SDS011;5414;59.782;16.378;2023-04-03T00:39:52;4.83;;;1.50;;
10725;SDS011;5414;59.782;16.378;2023-04-03T00:42:18;3.03;;;1.20;;
10725;SDS011;5414;59.782;16.378;2023-04-03T00:47:11;2.17;;;1.20;;
10725;SDS011;5414;59.782;16.378;2023-04-03T00:49:37;2.90;;;1.20;;
10725;SDS011;5414;59.782;16.378;2023-04-03T00:52:04;2.83;;;1.10;;
10725;SDS011;5414;59.782;16.378;2023-04-03T00:54:31;4.00;;;1.40;;
10725;SDS011;5414;59.782;16.378;2023-04-03T00:56:58;2.30;;;1.00;;
10725;SDS011;5414;59.782;16.378;2023-04-03T00:59:25;2.43;;;1.23;;
10725;SDS011;5414;59.782;16.378;2023-04-03T01:01:53;2.90;;;1.40;;
10725;SDS011;5414;59.782;16.378;2023-04-03T01:06:56;3.30;;;1.27;;
10725;SDS011;5414;59.782;16.378;2023-04-03T01:09:23;2.27;;;1.23;;
10725;SDS011;5414;59.782;16.378;2023-04-03T01:11:49;2.60;;;1.33;;
10725;SDS011;5414;59.782;16.378;2023-04-03T01:14:15;3.80;;;1.17;;
10725;SDS011;5414;59.782;16.378;2023-04-03T01:16:41;3.37;;;1.23;;
10725;SDS011;5414;59.782;16.378;2023-04-03T01:19:08;3.20;;;1.33;;
10725;SDS011;5414;59.782;16.378;2023-04-03T01:26:55;2.03;;;1.13;;
10725;SDS011;5414;59.782;16.378;2023-04-03T01:29:21;4.67;;;1.40;;
10725;SDS011;5414;59.782;16.378;2023-04-03T01:31:51;3.03;;;1.00;;
10725;SDS011;5414;59.782;16.378;2023-04-03T01:34:17;2.70;;;1.20;;
10725;SDS011;5414;59.782;16.378;2023-04-03T01:36:45;1.97;;;1.03;;
10725;SDS011;5414;59.782;16.378;2023-04-03T01:39:11;5.50;;;1.27;;
10725;SDS011;5414;59.782;16.378;2023-04-03T01:41:37;2.47;;;1.30;;
10725;SDS011;5414;59.782;16.378;2023-04-03T01:44:03;2.63;;;1.30;;
10725;SDS011;5414;59.782;16.378;2023-04-03T01:46:29;4.77;;;1.43;;
10725;SDS011;5414;59.782;16.378;2023-04-03T01:48:55;2.93;;;1.27;;
10725;SDS011;5414;59.782;16.378;2023-04-03T01:51:21;4.77;;;1.30;;
10725;SDS011;5414;59.782;16.378;2023-04-03T01:53:47;5.00;;;1.67;;
10725;SDS011;5414;59.782;16.378;2023-04-03T01:56:14;3.67;;;1.33;;
10725;SDS011;5414;59.782;16.378;2023-04-03T01:58:40;4.10;;;1.60;;
10725;SDS011;5414;59.782;16.378;2023-04-03T02:01:06;5.63;;;1.77;;
10725;SDS011;5414;59.782;16.378;2023-04-03T02:03:32;5.20;;;1.50;;
10725;SDS011;5414;59.782;16.378;2023-04-03T02:05:58;4.70;;;1.90;;
10725;SDS011;5414;59.782;16.378;2023-04-03T02:08:24;5.10;;;1.30;;
10725;SDS011;5414;59.782;16.378;2023-04-03T02:10:51;5.73;;;1.53;;
10725;SDS011;5414;59.782;16.378;2023-04-03T02:13:17;3.20;;;1.30;;
10725;SDS011;5414;59.782;16.378;2023-04-03T02:15:43;2.80;;;1.60;;
10725;SDS011;5414;59.782;16.378;2023-04-03T02:18:10;4.47;;;1.40;;
10725;SDS011;5414;59.782;16.378;2023-04-03T02:20:36;3.80;;;1.30;;
10725;SDS011;5414;59.782;16.378;2023-04-03T02:23:03;4.07;;;1.70;;
10725;SDS011;5414;59.782;16.378;2023-04-03T02:25:30;3.80;;;1.43;;
10725;SDS011;5414;59.782;16.378;2023-04-03T02:27:56;6.43;;;1.30;;
10725;SDS011;5414;59.782;16.378;2023-04-03T02:30:22;3.33;;;1.30;;
10725;SDS011;5414;59.782;16.378;2023-04-03T02:32:48;2.70;;;1.30;;
10725;SDS011;5414;59.782;16.378;2023-04-03T02:35:14;3.13;;;1.50;;
10725;SDS011;5414;59.782;16.378;2023-04-03T02:37:41;4.27;;;1.70;;
10725;SDS011;5414;59.782;16.378;2023-04-03T02:40:07;3.77;;;1.70;;
10725;SDS011;5414;59.782;16.378;2023-04-03T02:42:33;5.73;;;1.80;;
10725;SDS011;5414;59.782;16.378;2023-04-03T02:44:59;2.67;;;1.30;;
10725;SDS011;5414;59.782;16.378;2023-04-03T02:47:25;4.43;;;1.40;;
10725;SDS011;5414;59.782;16.378;2023-04-03T02:49:52;4.13;;;1.57;;
10725;SDS011;5414;59.782;16.378;2023-04-03T02:52:18;3.53;;;1.30;;
10725;SDS011;5414;59.782;16.378;2023-04-03T02:54:44;4.97;;;1.50;;
10725;SDS011;5414;59.782;16.378;2023-04-03T02:57:10;3.00;;;1.70;;
10725;SDS011;5414;59.782;16.378;2023-04-03T02:59:36;5.20;;;1.43;;
10725;SDS011;5414;59.782;16.378;2023-04-03T03:02:05;4.63;;;1.30;;
10725;SDS011;5414;59.782;16.378;2023-04-03T03:04:32;2.47;;;1.37;;
10725;SDS011;5414;59.782;16.378;2023-04-03T03:06:58;3.73;;;1.53;;
10725;SDS011;5414;59.782;16.378;2023-04-03T03:09:24;3.43;;;1.30;;
10725;SDS011;5414;59.782;16.378;2023-04-03T03:11:50;3.43;;;1.87;;
10725;SDS011;5414;59.782;16.378;2023-04-03T03:14:16;3.87;;;1.27;;
10725;SDS011;5414;59.782;16.378;2023-04-03T03:16:42;4.73;;;1.37;;
10725;SDS011;5414;59.782;16.378;2023-04-03T03:19:08;6.23;;;1.43;;
10725;SDS011;5414;59.782;16.378;2023-04-03T03:21:35;4.53;;;1.33;;
10725;SDS011;5414;59.782;16.378;2023-04-03T03:24:01;7.50;;;1.90;;
10725;SDS011;5414;59.782;16.378;2023-04-03T03:26:27;4.47;;;1.57;;
10725;SDS011;5414;59.782;16.378;2023-04-03T03:28:53;5.27;;;1.60;;
10725;SDS011;5414;59.782;16.378;2023-04-03T03:31:19;5.17;;;1.80;;
10725;SDS011;5414;59.782;16.378;2023-04-03T03:33:45;4.20;;;1.40;;
10725;SDS011;5414;59.782;16.378;2023-04-03T03:36:11;6.37;;;1.50;;
10725;SDS011;5414;59.782;16.378;2023-04-03T03:38:37;1.77;;;1.20;;
10725;SDS011;5414;59.782;16.378;2023-04-03T03:41:03;6.43;;;1.90;;
10725;SDS011;5414;59.782;16.378;2023-04-03T03:43:30;3.60;;;1.10;;
10725;SDS011;5414;59.782;16.378;2023-04-03T03:45:56;4.63;;;1.70;;
10725;SDS011;5414;59.782;16.378;2023-04-03T03:48:22;3.60;;;1.70;;
10725;SDS011;5414;59.782;16.378;2023-04-03T03:50:48;6.47;;;1.40;;
10725;SDS011;5414;59.782;16.378;2023-04-03T03:53:14;3.00;;;1.33;;
10725;SDS011;5414;59.782;16.378;2023-04-03T03:55:41;4.33;;;1.60;;
10725;SDS011;5414;59.782;16.378;2023-04-03T03:58:07;6.47;;;1.60;;
10725;SDS011;5414;59.782;16.378;2023-04-03T04:00:33;3.40;;;1.27;;
10725;SDS011;5414;59.782;16.378;2023-04-03T04:02:59;3.47;;;1.33;;
10725;SDS011;5414;59.782;16.378;2023-04-03T04:05:25;3.77;;;1.20;;
10725;SDS011;5414;59.782;16.378;2023-04-03T04:07:53;3.90;;;1.27;;
10725;SDS011;5414;59.782;16.378;2023-04-03T04:10:20;3.03;;;1.80;;
10725;SDS011;5414;59.782;16.378;2023-04-03T04:12:46;3.63;;;1.50;;
10725;SDS011;5414;59.782;16.378;2023-04-03T04:15:14;6.50;;;1.60;;
10725;SDS011;5414;59.782;16.378;2023-04-03T04:17:40;7.27;;;1.50;;
10725;SDS011;5414;59.782;16.378;2023-04-03T04:20:06;4.53;;;1.60;;
10725;SDS011;5414;59.782;16.378;2023-04-03T04:22:33;4.33;;;1.40;;
10725;SDS011;5414;59.782;16.378;2023-04-03T04:24:59;5.67;;;1.50;;
10725;SDS011;5414;59.782;16.378;2023-04-03T04:27:25;4.43;;;1.50;;
10725;SDS011;5414;59.782;16.378;2023-04-03T04:29:51;5.00;;;1.60;;
10725;SDS011;5414;59.782;16.378;2023-04-03T04:32:17;6.20;;;1.70;;
10725;SDS011;5414;59.782;16.378;2023-04-03T04:34:43;3.67;;;1.60;;
10725;SDS011;5414;59.782;16.378;2023-04-03T04:37:09;4.43;;;2.00;;
10725;SDS011;5414;59.782;16.378;2023-04-03T04:39:35;7.50;;;1.30;;
10725;SDS011;5414;59.782;16.378;2023-04-03T04:42:01;4.33;;;1.50;;
10725;SDS011;5414;59.782;16.378;2023-04-03T04:44:28;3.37;;;1.77;;
10725;SDS011;5414;59.782;16.378;2023-04-03T04:46:54;4.73;;;1.80;;
10725;SDS011;5414;59.782;16.378;2023-04-03T04:49:20;7.67;;;1.90;;
10725;SDS011;5414;59.782;16.378;2023-04-03T04:51:46;4.83;;;1.63;;
10725;SDS011;5414;59.782;16.378;2023-04-03T04:54:12;5.57;;;1.73;;
10725;SDS011;5414;59.782;16.378;2023-04-03T04:56:38;5.03;;;1.77;;
10725;SDS011;5414;59.782;16.378;2023-04-03T04:59:04;3.93;;;1.43;;
10725;SDS011;5414;59.782;16.378;2023-04-03T05:01:30;6.43;;;1.97;;
10725;SDS011;5414;59.782;16.378;2023-04-03T05:03:56;3.23;;;1.63;;
10725;SDS011;5414;59.782;16.378;2023-04-03T05:06:22;5.60;;;1.60;;
10725;SDS011;5414;59.782;16.378;2023-04-03T05:08:50;4.17;;;1.57;;
10725;SDS011;5414;59.782;16.378;2023-04-03T05:11:16;3.00;;;1.40;;
10725;SDS011;5414;59.782;16.378;2023-04-03T05:13:42;3.10;;;1.60;;
10725;SDS011;5414;59.782;16.378;2023-04-03T05:16:08;3.67;;;1.40;;
10725;SDS011;5414;59.782;16.378;2023-04-03T05:18:34;5.27;;;1.50;;
10725;SDS011;5414;59.782;16.378;2023-04-03T05:21:01;2.93;;;1.47;;
10725;SDS011;5414;59.782;16.378;2023-04-03T05:23:27;2.40;;;1.17;;
10725;SDS011;5414;59.782;16.378;2023-04-03T05:25:53;3.70;;;1.17;;
10725;SDS011;5414;59.782;16.378;2023-04-03T05:28:19;5.67;;;1.30;;
10725;SDS011;5414;59.782;16.378;2023-04-03T05:30:45;3.90;;;1.50;;
10725;SDS011;5414;59.782;16.378;2023-04-03T05:33:11;3.00;;;1.33;;
10725;SDS011;5414;59.782;16.378;2023-04-03T05:35:40;4.53;;;1.53;;
10725;SDS011;5414;59.782;16.378;2023-04-03T05:38:06;4.43;;;1.17;;
10725;SDS011;5414;59.782;16.378;2023-04-03T05:40:32;4.33;;;1.20;;
10725;SDS011;5414;59.782;16.378;2023-04-03T05:42:58;3.93;;;1.20;;
10725;SDS011;5414;59.782;16.378;2023-04-03T05:45:24;6.60;;;1.50;;
10725;SDS011;5414;59.782;16.378;2023-04-03T05:47:50;4.27;;;1.40;;
10725;SDS011;5414;59.782;16.378;2023-04-03T05:50:16;2.83;;;1.40;;
10725;SDS011;5414;59.782;16.378;2023-04-03T05:52:43;5.20;;;1.57;;
10725;SDS011;5414;59.782;16.378;2023-04-03T05:55:10;4.97;;;1.50;;
10725;SDS011;5414;59.782;16.378;2023-04-03T05:57:36;3.90;;;1.47;;
10725;SDS011;5414;59.782;16.378;2023-04-03T06:00:04;5.23;;;1.50;;
10725;SDS011;5414;59.782;16.378;2023-04-03T06:02:31;7.33;;;1.70;;
10725;SDS011;5414;59.782;16.378;2023-04-03T06:04:57;5.60;;;1.50;;
10725;SDS011;5414;59.782;16.378;2023-04-03T06:07:24;3.73;;;1.33;;
10725;SDS011;5414;59.782;16.378;2023-04-03T06:09:54;2.50;;;1.20;;
10725;SDS011;5414;59.782;16.378;2023-04-03T06:12:21;3.17;;;1.40;;
10725;SDS011;5414;59.782;16.378;2023-04-03T06:14:47;4.10;;;1.53;;
10725;SDS011;5414;59.782;16.378;2023-04-03T06:17:14;2.93;;;1.60;;
10725;SDS011;5414;59.782;16.378;2023-04-03T06:19:40;3.20;;;1.77;;
10725;SDS011;5414;59.782;16.378;2023-04-03T06:22:06;1.60;;;1.13;;
10725;SDS011;5414;59.782;16.378;2023-04-03T06:24:33;3.13;;;1.40;;
10725;SDS011;5414;59.782;16.378;2023-04-03T06:26:59;5.07;;;1.53;;
10725;SDS011;5414;59.782;16.378;2023-04-03T06:29:25;2.63;;;1.40;;
10725;SDS011;5414;59.782;16.378;2023-04-03T06:31:51;3.93;;;1.47;;
10725;SDS011;5414;59.782;16.378;2023-04-03T06:34:17;3.33;;;1.33;;
10725;SDS011;5414;59.782;16.378;2023-04-03T06:36:43;3.50;;;1.50;;
10725;SDS011;5414;59.782;16.378;2023-04-03T06:39:17;3.00;;;1.10;;
10725;SDS011;5414;59.782;16.378;2023-04-03T06:41:45;3.73;;;1.37;;
10725;SDS011;5414;59.782;16.378;2023-04-03T06:44:11;3.43;;;1.17;;
10725;SDS011;5414;59.782;16.378;2023-04-03T06:46:42;4.37;;;1.50;;
10725;SDS011;5414;59.782;16.378;2023-04-03T06:49:08;2.93;;;1.30;;
10725;SDS011;5414;59.782;16.378;2023-04-03T06:51:35;5.47;;;1.30;;
10725;SDS011;5414;59.782;16.378;2023-04-03T06:54:02;4.97;;;1.53;;
10725;SDS011;5414;59.782;16.378;2023-04-03T06:56:29;3.13;;;1.30;;
10725;SDS011;5414;59.782;16.378;2023-04-03T06:58:55;3.37;;;1.50;;
10725;SDS011;5414;59.782;16.378;2023-04-03T07:01:25;4.40;;;1.17;;
10725;SDS011;5414;59.782;16.378;2023-04-03T07:03:52;3.03;;;1.47;;
10725;SDS011;5414;59.782;16.378;2023-04-03T07:06:18;2.13;;;1.17;;
10725;SDS011;5414;59.782;16.378;2023-04-03T07:08:45;2.87;;;1.17;;
10725;SDS011;5414;59.782;16.378;2023-04-03T07:11:13;2.63;;;1.37;;
10725;SDS011;5414;59.782;16.378;2023-04-03T07:13:39;2.27;;;1.27;;
10725;SDS011;5414;59.782;16.378;2023-04-03T07:16:06;4.40;;;1.20;;
10725;SDS011;5414;59.782;16.378;2023-04-03T07:18:32;3.00;;;1.07;;
10725;SDS011;5414;59.782;16.378;2023-04-03T07:20:59;4.27;;;1.33;;
10725;SDS011;5414;59.782;16.378;2023-04-03T07:23:25;4.83;;;1.50;;
10725;SDS011;5414;59.782;16.378;2023-04-03T07:25:52;3.33;;;1.20;;
10725;SDS011;5414;59.782;16.378;2023-04-03T07:28:18;3.73;;;1.37;;
10725;SDS011;5414;59.782;16.378;2023-04-03T07:30:46;2.60;;;1.10;;
10725;SDS011;5414;59.782;16.378;2023-04-03T07:33:15;3.27;;;1.20;;
10725;SDS011;5414;59.782;16.378;2023-04-03T07:35:41;3.43;;;1.17;;
10725;SDS011;5414;59.782;16.378;2023-04-03T07:38:07;2.03;;;1.00;;
10725;SDS011;5414;59.782;16.378;2023-04-03T07:40:34;4.40;;;1.40;;
10725;SDS011;5414;59.782;16.378;2023-04-03T07:43:02;4.80;;;1.40;;
10725;SDS011;5414;59.782;16.378;2023-04-03T07:45:28;4.17;;;1.40;;
10725;SDS011;5414;59.782;16.378;2023-04-03T07:47:54;1.87;;;1.00;;
10725;SDS011;5414;59.782;16.378;2023-04-03T07:50:20;2.53;;;1.10;;
10725;SDS011;5414;59.782;16.378;2023-04-03T07:52:46;5.20;;;1.17;;
10725;SDS011;5414;59.782;16.378;2023-04-03T07:55:13;3.03;;;1.23;;
10725;SDS011;5414;59.782;16.378;2023-04-03T07:57:39;3.07;;;1.20;;
10725;SDS011;5414;59.782;16.378;2023-04-03T08:00:06;1.83;;;1.00;;
10725;SDS011;5414;59.782;16.378;2023-04-03T08:02:33;2.43;;;1.10;;
10725;SDS011;5414;59.782;16.378;2023-04-03T08:04:59;1.87;;;0.97;;
10725;SDS011;5414;59.782;16.378;2023-04-03T08:07:25;2.43;;;0.93;;
10725;SDS011;5414;59.782;16.378;2023-04-03T08:09:52;2.23;;;1.10;;
10725;SDS011;5414;59.782;16.378;2023-04-03T08:12:18;3.00;;;1.10;;
10725;SDS011;5414;59.782;16.378;2023-04-03T08:14:44;2.87;;;1.13;;
10725;SDS011;5414;59.782;16.378;2023-04-03T08:17:12;2.77;;;1.00;;
10725;SDS011;5414;59.782;16.378;2023-04-03T08:19:38;3.30;;;1.20;;
10725;SDS011;5414;59.782;16.378;2023-04-03T08:22:04;1.70;;;1.00;;
10725;SDS011;5414;59.782;16.378;2023-04-03T08:24:34;4.90;;;1.40;;
10725;SDS011;5414;59.782;16.378;2023-04-03T08:27:00;2.00;;;1.10;;
10725;SDS011;5414;59.782;16.378;2023-04-03T08:29:27;2.10;;;1.10;;
10725;SDS011;5414;59.782;16.378;2023-04-03T08:31:53;3.17;;;1.17;;
10725;SDS011;5414;59.782;16.378;2023-04-03T08:34:21;2.70;;;1.03;;
10725;SDS011;5414;59.782;16.378;2023-04-03T08:36:47;1.30;;;0.97;;
10725;SDS011;5414;59.782;16.378;2023-04-03T08:39:13;1.80;;;1.00;;
10725;SDS011;5414;59.782;16.378;2023-04-03T08:41:40;4.57;;;1.10;;
10725;SDS011;5414;59.782;16.378;2023-04-03T08:49:17;2.00;;;1.10;;
10725;SDS011;5414;59.782;16.378;2023-04-03T08:51:47;1.60;;;0.90;;
10725;SDS011;5414;59.782;16.378;2023-04-03T08:54:21;1.67;;;0.77;;
10725;SDS011;5414;59.782;16.378;2023-04-03T08:56:50;2.67;;;0.97;;
10725;SDS011;5414;59.782;16.378;2023-04-03T08:59:17;2.53;;;1.00;;
10725;SDS011;5414;59.782;16.378;2023-04-03T09:01:45;2.13;;;1.13;;
10725;SDS011;5414;59.782;16.378;2023-04-03T09:04:12;2.23;;;1.20;;
10725;SDS011;5414;59.782;16.378;2023-04-03T09:06:39;1.67;;;0.90;;
10725;SDS011;5414;59.782;16.378;2023-04-03T09:09:13;3.40;;;1.27;;
10725;SDS011;5414;59.782;16.378;2023-04-03T09:21:44;1.87;;;1.10;;
10725;SDS011;5414;59.782;16.378;2023-04-03T09:24:11;2.93;;;0.90;;
10725;SDS011;5414;59.782;16.378;2023-04-03T09:29:07;2.37;;;1.00;;
10725;SDS011;5414;59.782;16.378;2023-04-03T09:31:38;2.40;;;1.00;;
10725;SDS011;5414;59.782;16.378;2023-04-03T09:34:19;1.40;;;0.90;;
10725;SDS011;5414;59.782;16.378;2023-04-03T09:36:48;2.67;;;1.03;;
10725;SDS011;5414;59.782;16.378;2023-04-03T09:39:22;1.40;;;1.00;;
10725;SDS011;5414;59.782;16.378;2023-04-03T09:44:28;2.57;;;1.10;;
10725;SDS011;5414;59.782;16.378;2023-04-03T09:46:55;1.43;;;0.83;;
10725;SDS011;5414;59.782;16.378;2023-04-03T09:49:21;1.63;;;0.93;;
10725;SDS011;5414;59.782;16.378;2023-04-03T09:51:47;2.20;;;1.13;;
10725;SDS011;5414;59.782;16.378;2023-04-03T09:54:24;1.23;;;0.80;;
10725;SDS011;5414;59.782;16.378;2023-04-03T09:56:51;2.33;;;0.90;;
10725;SDS011;5414;59.782;16.378;2023-04-03T09:59:17;1.87;;;0.80;;
10725;SDS011;5414;59.782;16.378;2023-04-03T10:01:46;3.33;;;0.90;;
10725;SDS011;5414;59.782;16.378;2023-04-03T10:04:23;2.43;;;0.80;;
10725;SDS011;5414;59.782;16.378;2023-04-03T10:06:53;1.63;;;1.00;;
10725;SDS011;5414;59.782;16.378;2023-04-03T10:09:22;1.70;;;1.00;;
10725;SDS011;5414;59.782;16.378;2023-04-03T10:12:05;2.17;;;1.00;;
10725;SDS011;5414;59.782;16.378;2023-04-03T10:15:17;2.60;;;1.00;;
10725;SDS011;5414;59.782;16.378;2023-04-03T10:17:18;1.37;;;0.80;;
10725;SDS011;5414;59.782;16.378;2023-04-03T10:25:26;1.03;;;0.80;;
10725;SDS011;5414;59.782;16.378;2023-04-03T10:27:55;2.70;;;0.90;;
10725;SDS011;5414;59.782;16.378;2023-04-03T10:30:36;2.37;;;1.00;;
10725;SDS011;5414;59.782;16.378;2023-04-03T10:36:09;1.07;;;0.80;;
10725;SDS011;5414;59.782;16.378;2023-04-03T10:38:50;2.10;;;0.90;;
10725;SDS011;5414;59.782;16.378;2023-04-03T10:46:22;1.83;;;0.90;;
10725;SDS011;5414;59.782;16.378;2023-04-03T10:56:15;2.70;;;1.00;;
10725;SDS011;5414;59.782;16.378;2023-04-03T10:58:46;1.60;;;0.90;;
10725;SDS011;5414;59.782;16.378;2023-04-03T11:01:18;1.43;;;0.80;;
10725;SDS011;5414;59.782;16.378;2023-04-03T11:03:50;1.93;;;0.80;;
10725;SDS011;5414;59.782;16.378;2023-04-03T11:06:18;1.97;;;0.93;;
10725;SDS011;5414;59.782;16.378;2023-04-03T11:11:35;1.40;;;0.80;;
10725;SDS011;5414;59.782;16.378;2023-04-03T11:16:47;1.63;;;0.90;;
10725;SDS011;5414;59.782;16.378;2023-04-03T11:19:18;1.97;;;0.80;;
10725;SDS011;5414;59.782;16.378;2023-04-03T11:24:25;1.90;;;1.13;;
10725;SDS011;5414;59.782;16.378;2023-04-03T11:26:52;1.03;;;0.80;;
10725;SDS011;5414;59.782;16.378;2023-04-03T11:29:20;2.30;;;0.90;;
10725;SDS011;5414;59.782;16.378;2023-04-03T11:31:56;2.60;;;0.80;;
10725;SDS011;5414;59.782;16.378;2023-04-03T11:37:50;1.97;;;0.90;;
10725;SDS011;5414;59.782;16.378;2023-04-03T11:39:56;2.20;;;1.00;;
10725;SDS011;5414;59.782;16.378;2023-04-03T11:47:49;2.60;;;0.90;;
10725;SDS011;5414;59.782;16.378;2023-04-03T11:50:30;1.03;;;0.70;;
10725;SDS011;5414;59.782;16.378;2023-04-03T11:52:57;1.60;;;0.80;;
10725;SDS011;5414;59.782;16.378;2023-04-03T12:16:24;1.33;;;0.70;;
10725;SDS011;5414;59.782;16.378;2023-04-03T12:24:03;1.03;;;0.60;;
10725;SDS011;5414;59.782;16.378;2023-04-03T12:28:55;1.53;;;0.70;;
10725;SDS011;5414;59.782;16.378;2023-04-03T12:31:22;4.73;;;1.40;;
10725;SDS011;5414;59.782;16.378;2023-04-03T12:39:33;3.40;;;0.97;;
10725;SDS011;5414;59.782;16.378;2023-04-03T12:42:25;1.90;;;0.63;;
10725;SDS011;5414;59.782;16.378;2023-04-03T12:52:57;1.60;;;0.70;;
10725;SDS011;5414;59.782;16.378;2023-04-03T12:55:25;3.07;;;1.10;;
10725;SDS011;5414;59.782;16.378;2023-04-03T12:57:51;1.53;;;0.70;;
10725;SDS011;5414;59.782;16.378;2023-04-03T13:02:46;2.70;;;0.80;;
10725;SDS011;5414;59.782;16.378;2023-04-03T13:05:15;1.70;;;0.77;;
10725;SDS011;5414;59.782;16.378;2023-04-03T13:07:42;1.47;;;0.63;;
10725;SDS011;5414;59.782;16.378;2023-04-03T13:12:35;2.10;;;0.80;;
10725;SDS011;5414;59.782;16.378;2023-04-03T13:15:10;1.80;;;0.70;;
10725;SDS011;5414;59.782;16.378;2023-04-03T13:17:42;2.63;;;0.83;;
10725;SDS011;5414;59.782;16.378;2023-04-03T13:20:10;2.07;;;1.00;;
10725;SDS011;5414;59.782;16.378;2023-04-03T13:22:36;1.47;;;0.83;;
10725;SDS011;5414;59.782;16.378;2023-04-03T13:25:09;1.07;;;0.70;;
10725;SDS011;5414;59.782;16.378;2023-04-03T13:27:36;2.13;;;0.70;;
10725;SDS011;5414;59.782;16.378;2023-04-03T13:30:05;2.67;;;0.80;;
10725;SDS011;5414;59.782;16.378;2023-04-03T13:32:31;1.97;;;0.80;;
10725;SDS011;5414;59.782;16.378;2023-04-03T13:34:58;3.03;;;0.80;;
10725;SDS011;5414;59.782;16.378;2023-04-03T13:37:26;0.83;;;0.80;;
10725;SDS011;5414;59.782;16.378;2023-04-03T13:42:34;1.50;;;0.80;;
10725;SDS011;5414;59.782;16.378;2023-04-03T13:45:21;2.00;;;0.90;;
10725;SDS011;5414;59.782;16.378;2023-04-03T13:47:49;2.10;;;0.90;;
10725;SDS011;5414;59.782;16.378;2023-04-03T13:50:20;1.63;;;0.90;;
10725;SDS011;5414;59.782;16.378;2023-04-03T13:52:49;2.50;;;0.90;;
10725;SDS011;5414;59.782;16.378;2023-04-03T13:55:25;1.23;;;0.80;;
10725;SDS011;5414;59.782;16.378;2023-04-03T13:58:02;1.87;;;0.83;;
10725;SDS011;5414;59.782;16.378;2023-04-03T14:02:55;2.20;;;0.90;;
10725;SDS011;5414;59.782;16.378;2023-04-03T14:05:22;1.70;;;0.80;;
10725;SDS011;5414;59.782;16.378;2023-04-03T14:07:49;1.43;;;0.80;;
10725;SDS011;5414;59.782;16.378;2023-04-03T14:10:16;0.90;;;0.60;;
10725;SDS011;5414;59.782;16.378;2023-04-03T14:12:42;1.07;;;0.70;;
10725;SDS011;5414;59.782;16.378;2023-04-03T14:15:16;1.70;;;0.70;;
10725;SDS011;5414;59.782;16.378;2023-04-03T14:17:42;1.47;;;0.67;;
10725;SDS011;5414;59.782;16.378;2023-04-03T14:20:16;1.17;;;0.60;;
10725;SDS011;5414;59.782;16.378;2023-04-03T14:22:42;2.30;;;0.70;;
10725;SDS011;5414;59.782;16.378;2023-04-03T14:25:09;1.07;;;0.70;;
10725;SDS011;5414;59.782;16.378;2023-04-03T14:27:38;2.63;;;0.80;;
10725;SDS011;5414;59.782;16.378;2023-04-03T14:30:05;1.17;;;0.73;;
10725;SDS011;5414;59.782;16.378;2023-04-03T14:32:32;1.50;;;0.73;;
10725;SDS011;5414;59.782;16.378;2023-04-03T14:34:58;1.60;;;0.80;;
10725;SDS011;5414;59.782;16.378;2023-04-03T14:37:25;2.17;;;1.00;;
10725;SDS011;5414;59.782;16.378;2023-04-03T14:39:53;2.10;;;0.83;;
10725;SDS011;5414;59.782;16.378;2023-04-03T14:42:23;2.50;;;0.80;;
10725;SDS011;5414;59.782;16.378;2023-04-03T14:44:50;1.73;;;0.80;;
10725;SDS011;5414;59.782;16.378;2023-04-03T14:47:18;1.03;;;0.90;;
10725;SDS011;5414;59.782;16.378;2023-04-03T14:49:45;2.13;;;0.80;;
10725;SDS011;5414;59.782;16.378;2023-04-03T14:52:22;2.03;;;0.90;;
10725;SDS011;5414;59.782;16.378;2023-04-03T14:54:48;1.80;;;1.00;;
10725;SDS011;5414;59.782;16.378;2023-04-03T14:57:15;1.40;;;0.83;;
10725;SDS011;5414;59.782;16.378;2023-04-03T14:59:41;3.60;;;0.87;;
10725;SDS011;5414;59.782;16.378;2023-04-03T15:02:50;2.07;;;0.90;;
10725;SDS011;5414;59.782;16.378;2023-04-03T15:04:57;1.73;;;0.90;;
10725;SDS011;5414;59.782;16.378;2023-04-03T15:07:24;1.00;;;0.70;;
10725;SDS011;5414;59.782;16.378;2023-04-03T15:09:51;1.60;;;0.70;;
10725;SDS011;5414;59.782;16.378;2023-04-03T15:12:18;1.60;;;0.70;;
10725;SDS011;5414;59.782;16.378;2023-04-03T15:14:44;2.00;;;0.70;;
10725;SDS011;5414;59.782;16.378;2023-04-03T15:17:21;1.67;;;0.70;;
10725;SDS011;5414;59.782;16.378;2023-04-03T15:19:48;2.37;;;0.73;;
10725;SDS011;5414;59.782;16.378;2023-04-03T15:22:15;3.23;;;0.80;;
10725;SDS011;5414;59.782;16.378;2023-04-03T15:24:41;2.27;;;0.80;;
10725;SDS011;5414;59.782;16.378;2023-04-03T15:27:07;2.23;;;0.73;;
10725;SDS011;5414;59.782;16.378;2023-04-03T15:29:34;1.37;;;0.80;;
10725;SDS011;5414;59.782;16.378;2023-04-03T15:32:00;1.77;;;0.80;;
10725;SDS011;5414;59.782;16.378;2023-04-03T15:34:27;1.73;;;0.80;;
10725;SDS011;5414;59.782;16.378;2023-04-03T15:36:53;2.40;;;1.17;;
10725;SDS011;5414;59.782;16.378;2023-04-03T15:39:20;1.33;;;0.90;;
10725;SDS011;5414;59.782;16.378;2023-04-03T15:41:47;3.13;;;0.87;;
10725;SDS011;5414;59.782;16.378;2023-04-03T15:44:13;3.67;;;0.70;;
10725;SDS011;5414;59.782;16.378;2023-04-03T15:46:42;2.70;;;0.80;;
10725;SDS011;5414;59.782;16.378;2023-04-03T15:49:09;2.23;;;0.80;;
10725;SDS011;5414;59.782;16.378;2023-04-03T15:51:35;1.70;;;0.60;;
10725;SDS011;5414;59.782;16.378;2023-04-03T15:54:01;3.50;;;0.80;;
10725;SDS011;5414;59.782;16.378;2023-04-03T15:56:27;1.70;;;0.80;;
10725;SDS011;5414;59.782;16.378;2023-04-03T15:58:53;5.27;;;0.90;;
10725;SDS011;5414;59.782;16.378;2023-04-03T16:01:19;3.70;;;0.83;;
10725;SDS011;5414;59.782;16.378;2023-04-03T16:03:46;5.03;;;1.00;;
10725;SDS011;5414;59.782;16.378;2023-04-03T16:06:18;1.83;;;0.80;;
10725;SDS011;5414;59.782;16.378;2023-04-03T16:08:44;0.67;;;0.57;;
10725;SDS011;5414;59.782;16.378;2023-04-03T16:11:12;1.83;;;0.60;;
10725;SDS011;5414;59.782;16.378;2023-04-03T16:13:38;2.37;;;0.80;;
10725;SDS011;5414;59.782;16.378;2023-04-03T16:16:04;1.67;;;0.70;;
10725;SDS011;5414;59.782;16.378;2023-04-03T16:18:30;1.20;;;0.50;;
10725;SDS011;5414;59.782;16.378;2023-04-03T16:20:56;1.43;;;0.70;;
10725;SDS011;5414;59.782;16.378;2023-04-03T16:23:24;2.40;;;0.80;;
10725;SDS011;5414;59.782;16.378;2023-04-03T16:25:50;0.70;;;0.50;;
10725;SDS011;5414;59.782;16.378;2023-04-03T16:28:17;1.83;;;0.70;;
10725;SDS011;5414;59.782;16.378;2023-04-03T16:30:44;1.00;;;0.60;;
10725;SDS011;5414;59.782;16.378;2023-04-03T16:33:10;1.23;;;0.60;;
10725;SDS011;5414;59.782;16.378;2023-04-03T16:35:37;1.40;;;0.60;;
10725;SDS011;5414;59.782;16.378;2023-04-03T16:38:03;1.20;;;0.77;;
10725;SDS011;5414;59.782;16.378;2023-04-03T16:40:29;1.87;;;0.70;;
10725;SDS011;5414;59.782;16.378;2023-04-03T16:42:55;1.23;;;0.70;;
10725;SDS011;5414;59.782;16.378;2023-04-03T16:45:21;1.53;;;0.60;;
10725;SDS011;5414;59.782;16.378;2023-04-03T16:47:47;3.77;;;1.00;;
10725;SDS011;5414;59.782;16.378;2023-04-03T16:50:14;5.10;;;1.00;;